Aviation Digital Data Service (ADDS)

Output produced by METARs form (0917 UTC 30 July 2016)
found at http://aviationweather.gov/adds/metars/
 
KIAG 300901Z 3009/3106 08009KT P6SM BKN120 
     FM301600 06012KT P6SM OVC060 
     FM310000 08008KT P6SM BKN050